Terminal Aerodrome Forecast
Issued by NWS Jackson, MS

Home | Current Version | Previous Version | Text Only | Print | Product List | Glossary On
Versions: 1 2 3 4 5 6 7 8 9 10 11 12 13 14 15 16 17 18 19 20 21 22 23 24
027
FTUS44 KJAN 200810 AAB
TAFJAN
TAF AMD
KJAN 200810Z 2008/2106 15009KT P6SM OVC030
     FM201000 16010KT P6SM OVC020
     FM201600 17016G24KT P6SM SCT030 BKN050
     FM210000 15011KT P6SM FEW040 BKN250=

USA.gov is the U.S. government's official web portal to all federal, state and local government web resources and services.